Weather History for Northeast Philadelphia, PA

Change the Weather History Date:

Monday, October 29, 2012

  Actual Average Record
Temperature  
Mean Temperature 56 °F -  
Max Temperature 62 °F 59 °F 71 °F (2014)
Min Temperature 51 °F 40 °F 32 °F (1997)
Degree Days  
Heating Degree Days 8    
Growing Degree Days 6 (Base 50)    
Moisture  
Dew Point 52 °F    
Average Humidity 89    
Maximum Humidity 100    
Minimum Humidity 69    
Precipitation  
Precipitation 1.82 in - - ()
Sea Level Pressure  
Sea Level Pressure 28.91 in    
Wind  
Wind Speed 26 mph (NNE)    
Max Wind Speed 47 mph    
Max Gust Speed 62 mph    
Visibility 4 miles    
Events Rain    
Averages and records for this station are not official NWS values.
T = Trace of Precipitation, MM = Missing Value Source: NWS Daily Summary

Daily Weather History Graph

Daily Weather History Graph

Search for Another Location

Airport:

Trip Planner

Search our weather history database for the weather conditions in past years. The results will help you decide how hot, cold, wet, or windy it might be!

Date:

Astronomy

Oct. 29, 2012 Rise Set
Actual Time 7:26 AM EDT 6:00 PM EDT
Civil Twilight 6:58 AM EDT 6:28 PM EDT
Nautical Twilight 6:26 AM EDT 7:00 PM EDT
Astronomical Twilight 5:54 AM EDT 7:31 PM EDT
Moon 5:51 PM EDT (10/29) 7:14 AM EDT (10/29)
Length of Visible Light 11h 30m
Length of Day
10h 34m
Full, 100% of the Moon is Illuminated
Oct 29
Full
Oct 29
Full
Nov 6
Last Quarter
Nov 13
New
Nov 20
First Quarter

Hourly Weather History & Observations

Time (EDT) Temp. Dew Point Humidity Pressure Visibility Wind Dir Wind Speed Gust Speed Precip Events Conditions
12:54 AM 55.9 °F 46.0 °F 69% 29.60 in 10.0 mi NNE 20.7 mph 25.3 mph 0.00 in   Overcast
1:50 AM 55.4 °F 46.4 °F 72% 29.57 in 10.0 mi NE 26.5 mph 33.4 mph N/A   Overcast
1:54 AM 55.0 °F 46.9 °F 74% 29.57 in 10.0 mi NE 23.0 mph 33.4 mph N/A   Overcast
2:54 AM 55.0 °F 46.0 °F 72% 29.53 in 10.0 mi NE 19.6 mph 26.5 mph N/A   Overcast
3:42 AM 53.6 °F 46.4 °F 77% 29.51 in 10.0 mi NNE 24.2 mph 32.2 mph 0.00 in Rain Light Rain
3:54 AM 54.0 °F 46.0 °F 75% 29.50 in 10.0 mi NE 20.7 mph 28.8 mph 0.01 in Rain Light Rain
4:54 AM 54.0 °F 46.0 °F 75% 29.44 in 10.0 mi NNE 21.9 mph 33.4 mph 0.00 in Rain Light Rain
5:27 AM 53.6 °F 46.4 °F 77% 29.42 in 10.0 mi NNE 17.3 mph 29.9 mph 0.00 in   Overcast
5:54 AM 54.0 °F 46.0 °F 75% 29.40 in 10.0 mi NNE 24.2 mph 35.7 mph 0.00 in Rain Light Rain
6:54 AM 53.1 °F 48.0 °F 83% 29.37 in 5.0 mi North 19.6 mph 35.7 mph 0.04 in Rain Heavy Rain
7:24 AM 53.6 °F 48.2 °F 82% 29.34 in 5.0 mi North 23.0 mph 31.1 mph 0.07 in Rain Rain
7:54 AM 52.0 °F 50.0 °F 93% 29.32 in 3.0 mi North 23.0 mph 32.2 mph 0.18 in Rain Heavy Rain
8:06 AM 51.8 °F 50.0 °F 94% 29.31 in 4.0 mi North 20.7 mph 34.5 mph 0.06 in Rain Heavy Rain
8:24 AM 51.8 °F 50.0 °F 94% 29.30 in 3.0 mi North 25.3 mph 34.5 mph 0.14 in Rain Heavy Rain
8:31 AM 51.8 °F 50.0 °F 94% 29.29 in 2.5 mi North 25.3 mph 34.5 mph 0.18 in Rain Heavy Rain
8:49 AM 51.8 °F 50.0 °F 94% 29.28 in 1.5 mi North 23.0 mph 32.2 mph 0.28 in Rain Heavy Rain
8:54 AM 52.0 °F 50.0 °F 93% 29.26 in 1.5 mi North 24.2 mph 32.2 mph 0.31 in Rain Heavy Rain
9:02 AM 51.8 °F 50.0 °F 94% 29.24 in 3.0 mi North 26.5 mph 38.0 mph 0.02 in Rain Rain
9:14 AM 51.8 °F 51.8 °F 100% 29.23 in 2.0 mi North 25.3 mph 38.0 mph 0.06 in Rain Heavy Rain
9:46 AM 51.8 °F 50.0 °F 94% 29.20 in 1.5 mi North 23.0 mph 40.3 mph 0.14 in Rain Heavy Rain
9:54 AM 52.0 °F 51.1 °F 97% 29.19 in 1.8 mi North 24.2 mph 33.4 mph 0.16 in Rain Rain
10:29 AM 53.6 °F 51.8 °F 94% 29.15 in 1.2 mi North 23.0 mph 38.0 mph 0.07 in   Overcast
10:45 AM 53.6 °F 51.8 °F 94% 29.13 in 1.5 mi North 28.8 mph 40.3 mph 0.11 in   Overcast
10:54 AM 53.1 °F 51.1 °F 93% 29.12 in 1.5 mi North 24.2 mph 40.3 mph 0.11 in   Overcast
11:17 AM 53.6 °F 51.8 °F 94% 29.10 in 2.0 mi North 24.2 mph 39.1 mph 0.03 in   Overcast
11:36 AM 53.6 °F 51.8 °F 94% 29.07 in 1.5 mi North 25.3 mph 40.3 mph 0.06 in   Overcast
11:54 AM 54.0 °F 52.0 °F 93% 29.04 in 1.8 mi North 23.0 mph 39.1 mph 0.09 in Rain Rain
12:01 PM 53.6 °F 51.8 °F 94% 29.03 in 3.0 mi North 25.3 mph 39.1 mph 0.00 in Rain Light Rain
12:23 PM 53.6 °F 51.8 °F 94% 28.99 in 1.8 mi North 26.5 mph 39.1 mph 0.04 in   Overcast
12:37 PM 53.6 °F 51.8 °F 94% 28.96 in 2.0 mi North 28.8 mph 40.3 mph 0.04 in   Overcast
12:54 PM 55.0 °F 53.1 °F 93% 28.93 in 2.5 mi North 27.6 mph 42.6 mph 0.06 in   Overcast
1:14 PM 55.4 °F 53.6 °F 94% 28.90 in 1.8 mi North 26.5 mph 42.6 mph 0.01 in   Overcast
1:27 PM 55.4 °F 53.6 °F 94% 28.87 in 2.0 mi North 26.5 mph 46.0 mph 0.03 in Rain Light Rain
1:54 PM 55.9 °F 53.1 °F 90% 28.83 in 1.8 mi North 27.6 mph 38.0 mph 0.07 in   Overcast
2:44 PM 55.4 °F 53.6 °F 94% 28.72 in 2.0 mi North 29.9 mph 50.6 mph 0.18 in Rain Rain
2:54 PM 57.0 °F 54.0 °F 89% 28.70 in 1.8 mi North 35.7 mph 44.9 mph 0.22 in Rain Heavy Rain
3:09 PM 57.2 °F 53.6 °F 88% 28.67 in 2.5 mi North 28.8 mph 44.9 mph 0.04 in Rain Rain
3:22 PM 57.2 °F 55.4 °F 94% 28.65 in 3.0 mi North 27.6 mph 49.5 mph 0.06 in Rain Rain
3:33 PM 57.2 °F 55.4 °F 94% 28.63 in 2.5 mi North 32.2 mph 58.7 mph 0.09 in Rain Rain
3:54 PM 57.9 °F 55.9 °F 93% 28.58 in 1.2 mi North 35.7 mph 46.0 mph 0.17 in Rain Heavy Rain
4:35 PM 57.2 °F 57.2 °F 100% 28.50 in 0.8 mi North 31.1 mph 51.8 mph 0.20 in Rain Light Rain
4:42 PM 59.0 °F 57.2 °F 94% 28.48 in 1.2 mi North 32.2 mph 47.2 mph 0.25 in Rain Light Rain
4:54 PM 59.0 °F 57.0 °F 93% 28.46 in 2.0 mi North 29.9 mph 57.5 mph 0.27 in Rain Light Rain
5:18 PM 60.8 °F 57.2 °F 88% 28.43 in 3.0 mi NNE 38.0 mph 55.2 mph 0.07 in   Overcast
5:54 PM 60.1 °F 57.9 °F 93% 28.36 in 3.0 mi NNE 33.4 mph 57.5 mph 0.09 in   Overcast
6:25 PM 60.8 °F 57.2 °F 88% 28.34 in 2.5 mi NNE 40.3 mph 51.8 mph 0.01 in   Overcast
6:31 PM 60.8 °F 57.2 °F 88% 28.33 in 3.0 mi NNE 29.9 mph 51.8 mph 0.01 in   Overcast
6:44 PM 60.8 °F 59.0 °F 94% 28.31 in 2.5 mi NNE 27.6 mph 46.0 mph 0.01 in   Overcast
6:54 PM 62.1 °F 59.0 °F 90% 28.30 in 3.0 mi NE 42.6 mph 58.7 mph 0.03 in   Overcast
7:35 PM 60.8 °F 59.0 °F 94% 28.27 in 2.0 mi NE 40.3 mph 59.8 mph N/A   Overcast
7:40 PM 60.8 °F 57.2 °F 88% 28.27 in 3.0 mi NE 47.2 mph 59.8 mph 0.01 in   Overcast
7:54 PM 60.1 °F 55.9 °F 86% 28.26 in 7.0 mi NE 34.5 mph 62.1 mph 0.01 in   Overcast
8:37 PM 57.2 °F 55.4 °F 94% 28.23 in 2.5 mi ENE 38.0 mph 62.1 mph N/A   Overcast
8:54 PM 57.0 °F 55.0 °F 93% 28.23 in 3.0 mi ENE 39.1 mph 57.5 mph N/A   Overcast
9:54 PM 57.0 °F 55.0 °F 93% 28.33 in 4.0 mi East 36.8 mph 58.7 mph 0.00 in Rain Light Rain
10:54 PM 53.1 °F 50.0 °F 89% 28.50 in 9.0 mi ESE 41.4 mph 56.4 mph 0.00 in   Overcast
11:32 PM 51.8 °F 48.2 °F 88% 28.61 in 8.0 mi SE 32.2 mph 49.5 mph 0.00 in Rain Light Rain
11:52 PM 51.8 °F 48.2 °F 88% 28.67 in 7.0 mi SE 31.1 mph 44.9 mph 0.00 in Rain Light Rain
11:54 PM 51.1 °F 48.9 °F 92% 28.67 in 7.0 mi SE 33.4 mph 44.9 mph 0.00 in Rain Light Rain